createdAt,value
2022-08-02T00:01:06.484Z,17.18
2022-08-02T00:03:35.264Z,17.33
2022-08-02T00:06:04.516Z,17.13
2022-08-02T00:08:36.046Z,17.31
2022-08-02T00:11:04.885Z,17.27
2022-08-02T00:13:33.613Z,16.70
2022-08-02T00:16:02.617Z,17.16
2022-08-02T00:18:31.226Z,17.12
2022-08-02T00:20:59.912Z,17.08
2022-08-02T00:23:28.955Z,17.06
2022-08-02T00:25:59.037Z,17.01
2022-08-02T00:28:28.424Z,15.66
2022-08-02T00:30:58.961Z,16.76
2022-08-02T00:34:28.406Z,16.74
2022-08-02T00:36:17.450Z,16.36
2022-08-02T00:38:46.584Z,16.55
2022-08-02T00:41:20.697Z,16.39
2022-08-02T00:43:51.489Z,16.39
2022-08-02T00:46:22.085Z,16.34
2022-08-02T00:48:51.302Z,16.35
2022-08-02T00:51:20.145Z,16.30
2022-08-02T00:53:49.245Z,16.46
2022-08-02T00:56:19.397Z,16.54
2022-08-02T00:58:48.450Z,16.55
2022-08-02T01:01:17.656Z,16.51
2022-08-02T01:03:46.442Z,16.45
2022-08-02T01:06:15.032Z,16.18
2022-08-02T01:08:43.938Z,16.42
2022-08-02T01:11:13.597Z,16.47
2022-08-02T01:13:43.941Z,16.47
2022-08-02T01:16:20.659Z,16.49
2022-08-02T01:18:59.081Z,16.84
2022-08-02T01:22:15.190Z,17.22
2022-08-02T01:25:16.308Z,17.28
2022-08-02T01:28:07.977Z,17.23
2022-08-02T01:30:40.158Z,17.17
2022-08-02T01:33:12.712Z,17.30
2022-08-02T01:35:47.142Z,17.21
2022-08-02T01:38:30.767Z,17.09
2022-08-02T01:41:03.486Z,15.92
2022-08-02T01:43:37.575Z,16.85
2022-08-02T01:46:08.432Z,16.76
2022-08-02T01:48:38.335Z,16.66
2022-08-02T01:51:09.604Z,16.58
2022-08-02T01:53:42.262Z,16.51
2022-08-02T01:56:13.957Z,16.48
2022-08-02T01:58:45.554Z,16.52
2022-08-02T02:01:18.619Z,15.76
2022-08-02T02:03:50.155Z,16.69
2022-08-02T02:06:21.748Z,16.82
2022-08-02T02:08:53.266Z,16.96
2022-08-02T02:12:09.316Z,17.12
2022-08-02T02:14:16.303Z,17.25
2022-08-02T02:16:50.499Z,16.13
2022-08-02T02:19:23.464Z,17.41
2022-08-02T02:21:52.574Z,17.56
2022-08-02T02:24:23.373Z,17.39
2022-08-02T02:26:53.103Z,17.72
2022-08-02T02:29:30.785Z,17.80
2022-08-02T02:32:02.494Z,17.84
2022-08-02T02:34:37.880Z,17.90
2022-08-02T02:37:13.875Z,17.94
2022-08-02T02:39:45.907Z,18.01
2022-08-02T02:42:19.685Z,18.03
2022-08-02T02:44:52.710Z,18.05
2022-08-02T02:47:23.662Z,18.03
2022-08-02T02:50:12.524Z,18.01
2022-08-02T02:52:43.332Z,18.01
2022-08-02T02:55:13.242Z,17.99
2022-08-02T02:57:43.352Z,17.95
2022-08-02T03:00:16.559Z,17.83
2022-08-02T03:02:46.804Z,17.90
2022-08-02T03:05:17.109Z,17.88
2022-08-02T03:07:46.131Z,17.82
2022-08-02T03:10:15.089Z,17.78
2022-08-02T03:12:44.009Z,17.42
2022-08-02T03:15:16.595Z,17.74
2022-08-02T03:17:47.374Z,17.73
2022-08-02T03:20:19.736Z,17.69
2022-08-02T03:22:49.015Z,17.58
2022-08-02T03:25:19.347Z,17.26
2022-08-02T03:27:48.628Z,17.44
2022-08-02T03:30:19.223Z,17.33
2022-08-02T03:32:50.142Z,17.22
2022-08-02T03:35:24.184Z,17.09
2022-08-02T03:37:56.790Z,16.96
2022-08-02T03:40:27.098Z,16.26
2022-08-02T03:42:56.683Z,16.71
2022-08-02T03:45:27.932Z,16.73
2022-08-02T03:47:58.813Z,16.71
2022-08-02T03:50:29.407Z,16.72
2022-08-02T03:52:59.784Z,16.38
2022-08-02T03:55:28.775Z,16.68
2022-08-02T03:57:57.813Z,16.52
2022-08-02T04:00:27.835Z,16.55
2022-08-02T04:02:56.795Z,16.67
2022-08-02T04:05:25.956Z,16.67
2022-08-02T04:08:03.594Z,16.32
2022-08-02T04:10:57.428Z,16.79
2022-08-02T04:13:35.857Z,16.82
2022-08-02T04:16:15.069Z,17.07
2022-08-02T04:18:53.225Z,16.92
2022-08-02T04:21:25.565Z,17.04
2022-08-02T04:23:57.191Z,16.88
2022-08-02T04:26:28.258Z,16.57
2022-08-02T04:28:59.015Z,16.75
2022-08-02T04:31:31.119Z,17.09
2022-08-02T04:34:00.453Z,17.32
2022-08-02T04:36:31.683Z,17.55
2022-08-02T04:39:00.811Z,17.65
2022-08-02T04:41:41.101Z,17.67
2022-08-02T04:44:13.086Z,17.66
2022-08-02T04:46:45.478Z,17.63
2022-08-02T04:49:14.597Z,17.76
2022-08-02T04:51:46.275Z,17.51
2022-08-02T04:54:15.213Z,17.88
2022-08-02T04:56:44.313Z,17.81
2022-08-02T04:59:13.271Z,18.14
2022-08-02T05:01:43.726Z,18.34
2022-08-02T05:04:12.762Z,18.66
2022-08-02T05:06:41.724Z,18.99
2022-08-02T05:09:10.681Z,18.85
2022-08-02T05:11:39.709Z,19.26
2022-08-02T05:14:09.177Z,19.33
2022-08-02T05:16:38.937Z,19.38
2022-08-02T05:19:28.232Z,18.25
2022-08-02T05:21:57.244Z,19.37
2022-08-02T05:24:26.036Z,19.45
2022-08-02T05:26:54.759Z,19.63
2022-08-02T05:29:23.616Z,20.17
2022-08-02T05:31:52.612Z,19.89
2022-08-02T05:34:22.861Z,20.71
2022-08-02T05:36:51.925Z,21.16
2022-08-02T05:39:21.338Z,21.38
2022-08-02T05:41:52.053Z,21.44
2022-08-02T05:44:20.948Z,21.35
2022-08-02T05:46:49.757Z,21.02
2022-08-02T05:49:19.468Z,20.95
2022-08-02T05:52:05.590Z,20.94
2022-08-02T05:54:50.306Z,21.10
2022-08-02T05:57:31.859Z,21.12
2022-08-02T06:00:09.495Z,21.36
2022-08-02T06:03:16.705Z,21.57
2022-08-02T06:06:00.171Z,21.33
2022-08-02T06:08:38.842Z,21.44
2022-08-02T06:11:13.726Z,21.63
2022-08-02T06:13:44.143Z,21.37
2022-08-02T06:16:14.886Z,20.52
2022-08-02T06:18:45.252Z,21.14
2022-08-02T06:22:37.543Z,21.07
2022-08-02T06:24:10.167Z,21.02
2022-08-02T06:26:39.687Z,21.15
2022-08-02T06:29:09.204Z,21.17
2022-08-02T06:31:39.280Z,21.08
2022-08-02T06:34:08.302Z,21.48
2022-08-02T06:36:49.013Z,21.46
2022-08-02T06:39:28.270Z,22.05
2022-08-02T06:42:06.946Z,21.94
2022-08-02T06:44:50.730Z,21.70
2022-08-02T06:47:20.711Z,21.50
2022-08-02T06:49:51.446Z,21.15
2022-08-02T06:52:28.886Z,21.18
2022-08-02T06:55:03.313Z,21.15
2022-08-02T06:57:32.895Z,21.26
2022-08-02T07:00:03.604Z,20.48
2022-08-02T07:02:32.880Z,21.36
2022-08-02T07:05:01.696Z,21.46
2022-08-02T07:07:30.923Z,21.68
2022-08-02T07:10:06.247Z,21.91
2022-08-02T07:12:37.595Z,21.88
2022-08-02T07:15:10.143Z,22.09
2022-08-02T07:17:38.850Z,22.17
2022-08-02T07:20:10.920Z,22.36
2022-08-02T07:22:39.734Z,22.46
2022-08-02T07:25:11.631Z,22.73
2022-08-02T07:27:40.694Z,22.77
2022-08-02T07:30:11.340Z,22.58
2022-08-02T07:32:40.452Z,22.93
2022-08-02T07:35:10.583Z,23.17
2022-08-02T07:37:55.256Z,23.39
2022-08-02T07:40:29.526Z,23.19
2022-08-02T07:43:03.795Z,23.23
2022-08-02T07:45:35.868Z,23.55
2022-08-02T07:48:06.163Z,23.93
2022-08-02T07:50:34.882Z,24.33
2022-08-02T07:53:03.485Z,24.61
2022-08-02T07:55:40.523Z,24.64
2022-08-02T07:58:13.097Z,25.13
2022-08-02T08:00:45.029Z,25.28
2022-08-02T08:03:14.023Z,25.03
2022-08-02T08:05:42.941Z,25.25
2022-08-02T08:08:16.909Z,25.35
2022-08-02T08:10:48.127Z,25.52
2022-08-02T08:13:17.179Z,25.67
2022-08-02T08:15:51.475Z,25.67
2022-08-02T08:18:22.155Z,25.96
2022-08-02T08:20:51.863Z,26.15
2022-08-02T08:23:20.779Z,25.96
2022-08-02T08:25:50.838Z,25.73
2022-08-02T08:28:19.538Z,25.51
2022-08-02T08:30:48.606Z,25.68
2022-08-02T08:33:17.609Z,25.89
2022-08-02T08:35:46.277Z,25.59
2022-08-02T08:38:15.783Z,25.36
2022-08-02T08:40:44.982Z,25.58
2022-08-02T08:43:15.793Z,25.49
2022-08-02T08:45:55.633Z,25.79
2022-08-02T08:48:31.204Z,25.67
2022-08-02T08:51:11.742Z,25.45
2022-08-02T08:53:45.064Z,25.53
2022-08-02T08:56:16.759Z,25.52
2022-08-02T08:58:48.564Z,26.13
2022-08-02T09:01:18.157Z,26.43
2022-08-02T09:03:50.778Z,26.66
2022-08-02T09:06:19.513Z,26.80
2022-08-02T09:08:48.174Z,26.97
2022-08-02T09:11:18.971Z,26.89
2022-08-02T09:13:55.225Z,26.51
2022-08-02T09:16:34.045Z,26.39
2022-08-02T09:19:07.730Z,26.08
2022-08-02T09:21:39.315Z,25.38
2022-08-02T09:24:19.294Z,25.09
2022-08-02T09:26:49.482Z,24.94
2022-08-02T09:29:23.040Z,24.53
2022-08-02T09:31:53.574Z,25.09
2022-08-02T09:34:22.737Z,24.12
2022-08-02T09:36:54.614Z,25.51
2022-08-02T09:39:26.501Z,25.75
2022-08-02T09:42:10.886Z,26.44
2022-08-02T09:44:41.300Z,26.83
2022-08-02T09:47:18.278Z,26.96
2022-08-02T09:49:52.287Z,27.19
2022-08-02T09:52:37.306Z,27.02
2022-08-02T09:55:14.444Z,26.91
2022-08-02T09:57:43.852Z,26.55
2022-08-02T10:00:37.146Z,26.62
2022-08-02T10:03:21.575Z,26.51
2022-08-02T10:05:56.249Z,26.47
2022-08-02T10:08:33.639Z,26.55
2022-08-02T10:11:03.872Z,26.66
2022-08-02T10:13:35.599Z,26.95
2022-08-02T10:16:07.301Z,27.27
2022-08-02T10:18:40.503Z,27.36
2022-08-02T10:21:16.335Z,26.31
2022-08-02T10:23:47.987Z,26.59
2022-08-02T10:26:22.633Z,26.64
2022-08-02T10:28:54.266Z,26.94
2022-08-02T10:31:29.708Z,25.54
2022-08-02T10:34:02.846Z,27.55
2022-08-02T10:36:35.109Z,27.64
2022-08-02T10:39:05.255Z,27.15
2022-08-02T10:41:46.766Z,27.83
2022-08-02T10:44:30.169Z,27.99
2022-08-02T10:47:25.236Z,27.88
2022-08-02T10:49:57.303Z,28.02
2022-08-02T10:52:27.881Z,28.29
2022-08-02T10:55:01.105Z,27.82
2022-08-02T10:57:33.541Z,28.81
2022-08-02T11:00:12.578Z,28.97
2022-08-02T11:02:53.546Z,29.06
2022-08-02T11:05:42.492Z,28.52
2022-08-02T11:08:25.191Z,28.51
2022-08-02T11:11:01.734Z,28.27
2022-08-02T11:13:31.981Z,27.89
2022-08-02T11:16:11.166Z,27.77
2022-08-02T11:19:07.186Z,27.87
2022-08-02T11:21:37.471Z,28.01
2022-08-02T11:24:28.833Z,27.95
2022-08-02T11:26:59.395Z,27.72
2022-08-02T11:29:39.156Z,27.48
2022-08-02T11:32:10.705Z,27.83
2022-08-02T11:34:42.017Z,28.04
2022-08-02T11:37:11.681Z,27.87
2022-08-02T11:39:40.615Z,27.65
2022-08-02T11:42:09.779Z,27.42
2022-08-02T11:44:43.521Z,27.62
2022-08-02T11:47:12.836Z,27.62
2022-08-02T11:49:43.725Z,27.85
2022-08-02T11:52:12.756Z,27.96
2022-08-02T11:54:45.281Z,27.79
2022-08-02T11:57:20.170Z,27.68
2022-08-02T11:59:52.247Z,27.40
2022-08-02T12:02:23.118Z,26.40
2022-08-02T12:04:59.890Z,27.33
2022-08-02T12:07:34.338Z,27.09
2022-08-02T12:10:08.559Z,27.03
2022-08-02T12:12:50.359Z,27.31
2022-08-02T12:15:33.777Z,27.64
2022-08-02T12:18:20.815Z,27.65
2022-08-02T12:20:51.151Z,27.51
2022-08-02T12:23:19.929Z,27.24
2022-08-02T12:26:01.144Z,26.96
2022-08-02T12:28:29.796Z,26.80
2022-08-02T12:31:01.414Z,26.66
2022-08-02T12:33:46.622Z,26.70
2022-08-02T12:36:21.574Z,26.70
2022-08-02T12:38:53.969Z,26.35
2022-08-02T12:41:31.725Z,26.65
2022-08-02T12:44:01.789Z,26.89
2022-08-02T12:46:31.981Z,26.73
2022-08-02T12:49:18.977Z,27.20
2022-08-02T12:51:51.368Z,27.17
2022-08-02T12:54:30.930Z,26.86
2022-08-02T12:57:11.703Z,27.04
2022-08-02T12:59:42.447Z,26.96
2022-08-02T13:02:14.584Z,26.83
2022-08-02T13:04:50.071Z,26.93
2022-08-02T13:07:21.272Z,27.02
2022-08-02T13:09:50.263Z,27.13
2022-08-02T13:12:18.873Z,26.81
2022-08-02T13:14:47.699Z,27.19
2022-08-02T13:17:16.292Z,27.11
2022-08-02T13:19:44.889Z,26.80
2022-08-02T13:22:13.715Z,27.03
2022-08-02T13:24:55.623Z,26.88
2022-08-02T13:27:27.600Z,27.04
2022-08-02T13:29:58.429Z,26.94
2022-08-02T13:32:29.334Z,26.57
2022-08-02T13:34:59.391Z,26.88
2022-08-02T13:37:28.116Z,26.80
2022-08-02T13:40:20.635Z,27.03
2022-08-02T13:42:47.378Z,27.11
2022-08-02T13:45:16.595Z,27.09
2022-08-02T13:48:04.244Z,26.97
2022-08-02T13:50:34.405Z,27.21
2022-08-02T13:53:03.066Z,27.21
2022-08-02T13:55:33.447Z,27.18
2022-08-02T13:58:02.077Z,27.22
2022-08-02T14:00:35.410Z,27.16
2022-08-02T14:03:07.120Z,27.43
2022-08-02T14:05:48.349Z,27.23
2022-08-02T14:08:19.752Z,27.34
2022-08-02T14:10:52.053Z,27.43
2022-08-02T14:13:21.393Z,27.47
2022-08-02T14:15:50.209Z,27.38
2022-08-02T14:18:19.278Z,27.45
2022-08-02T14:20:48.211Z,27.62
2022-08-02T14:23:16.875Z,27.61
2022-08-02T14:25:45.840Z,27.54
2022-08-02T14:28:16.237Z,27.63
2022-08-02T14:30:45.178Z,27.54
2022-08-02T14:33:13.808Z,27.67
2022-08-02T14:35:42.828Z,27.72
2022-08-02T14:38:12.035Z,27.78
2022-08-02T14:40:40.766Z,27.88
2022-08-02T14:43:09.619Z,27.91
2022-08-02T14:45:41.439Z,27.90
2022-08-02T14:48:12.705Z,27.09
2022-08-02T14:50:41.571Z,27.87
2022-08-02T14:53:12.389Z,28.08
2022-08-02T14:55:43.418Z,27.59
2022-08-02T14:58:12.894Z,28.16
2022-08-02T15:00:43.904Z,28.21
2022-08-02T15:03:13.445Z,28.56
2022-08-02T15:05:42.403Z,28.44
2022-08-02T15:08:11.123Z,27.96
2022-08-02T15:10:46.788Z,28.81
2022-08-02T15:13:15.379Z,28.77
2022-08-02T15:15:45.663Z,28.74
2022-08-02T15:18:15.266Z,28.62
2022-08-02T15:20:57.415Z,28.75
2022-08-02T15:23:37.286Z,28.64
2022-08-02T15:26:07.817Z,28.94
2022-08-02T15:28:37.171Z,28.15
2022-08-02T15:31:07.264Z,29.06
2022-08-02T15:33:35.911Z,29.08
2022-08-02T15:36:04.896Z,29.21
2022-08-02T15:38:33.685Z,29.21
2022-08-02T15:41:02.436Z,29.14
2022-08-02T15:43:31.225Z,29.30
2022-08-02T15:45:59.855Z,29.25
2022-08-02T15:48:30.011Z,28.24
2022-08-02T15:50:58.691Z,28.96
2022-08-02T15:53:27.291Z,29.11
2022-08-02T15:56:05.730Z,29.20
2022-08-02T15:58:44.216Z,29.25
2022-08-02T16:01:14.140Z,29.21
2022-08-02T16:03:44.265Z,29.07
2022-08-02T16:06:15.641Z,29.06
2022-08-02T16:08:53.468Z,29.15
2022-08-02T16:11:23.423Z,29.02
2022-08-02T16:13:54.403Z,28.67
2022-08-02T16:16:25.836Z,29.04
2022-08-02T16:18:56.677Z,29.14
2022-08-02T16:21:25.908Z,29.21
2022-08-02T16:24:01.357Z,29.21
2022-08-02T16:26:34.109Z,29.19
2022-08-02T16:29:07.560Z,29.15
2022-08-02T16:31:42.442Z,29.18
2022-08-02T16:34:13.056Z,28.49
2022-08-02T16:36:41.713Z,28.51
2022-08-02T16:39:10.327Z,28.62
2022-08-02T16:41:50.322Z,28.62
2022-08-02T16:44:29.165Z,28.55
2022-08-02T16:47:01.181Z,28.58
2022-08-02T16:50:07.470Z,28.67
2022-08-02T16:52:21.277Z,28.65
2022-08-02T16:54:50.256Z,28.58
2022-08-02T16:57:19.757Z,28.26
2022-08-02T16:59:58.294Z,28.35
2022-08-02T17:02:27.916Z,28.35
2022-08-02T17:04:59.203Z,28.33
2022-08-02T17:08:10.359Z,28.13
2022-08-02T17:10:18.944Z,28.06
2022-08-02T17:12:51.241Z,28.02
2022-08-02T17:16:01.155Z,27.85
2022-08-02T17:18:09.968Z,27.84
2022-08-02T17:20:40.161Z,27.85
2022-08-02T17:23:16.398Z,27.35
2022-08-02T17:25:52.429Z,27.66
2022-08-02T17:28:21.596Z,27.51
2022-08-02T17:31:01.027Z,27.46
2022-08-02T17:33:29.928Z,27.37
2022-08-02T17:36:01.788Z,27.27
2022-08-02T17:38:31.605Z,27.22
2022-08-02T17:41:00.774Z,26.92
2022-08-02T17:43:33.603Z,26.97
2022-08-02T17:46:08.387Z,26.90
2022-08-02T17:48:54.901Z,26.78
2022-08-02T17:52:14.949Z,26.63
2022-08-02T17:54:18.852Z,26.09
2022-08-02T17:56:48.378Z,26.45
2022-08-02T17:59:22.448Z,26.35
2022-08-02T18:02:03.580Z,26.26
2022-08-02T18:04:34.486Z,26.18
2022-08-02T18:07:09.441Z,26.08
2022-08-02T18:09:43.317Z,25.87
2022-08-02T18:12:14.371Z,25.78
2022-08-02T18:14:46.121Z,25.51
2022-08-02T18:17:19.128Z,25.38
2022-08-02T18:19:55.326Z,25.25
2022-08-02T18:22:29.470Z,25.09
2022-08-02T18:24:58.679Z,24.77
2022-08-02T18:27:33.237Z,24.55
2022-08-02T18:30:05.928Z,24.61
2022-08-02T18:33:56.032Z,24.47
2022-08-02T18:35:24.924Z,24.24
2022-08-02T18:38:04.131Z,23.93
2022-08-02T18:40:39.719Z,23.90
2022-08-02T18:43:10.381Z,23.89
2022-08-02T18:46:05.819Z,23.75
2022-08-02T18:48:32.360Z,23.46
2022-08-02T18:51:01.554Z,23.41
2022-08-02T18:53:41.561Z,23.26
2022-08-02T18:56:19.617Z,22.97
2022-08-02T18:58:53.322Z,23.01
2022-08-02T19:01:33.502Z,22.89
2022-08-02T19:04:08.723Z,22.54
2022-08-02T19:06:38.004Z,22.64
2022-08-02T19:11:59.412Z,22.16
2022-08-02T19:14:28.920Z,22.26
2022-08-02T19:17:16.082Z,22.12
2022-08-02T19:19:51.411Z,21.99
2022-08-02T19:22:20.527Z,21.90
2022-08-02T19:25:00.037Z,21.79
2022-08-02T19:30:21.279Z,21.61
2022-08-02T19:32:58.684Z,21.53
2022-08-02T19:35:31.630Z,21.46
2022-08-02T19:38:11.653Z,21.31
2022-08-02T19:40:43.015Z,21.24
2022-08-02T19:44:23.662Z,21.34
2022-08-02T19:46:01.403Z,21.24
2022-08-02T19:48:30.303Z,21.18
2022-08-02T19:51:01.314Z,21.15
2022-08-02T19:53:48.557Z,20.88
2022-08-02T19:56:25.214Z,21.13
2022-08-02T19:58:57.188Z,21.10
2022-08-02T20:01:36.692Z,20.59
2022-08-02T20:04:13.693Z,21.08
2022-08-02T20:06:45.924Z,21.07
2022-08-02T20:09:21.465Z,20.69
2022-08-02T20:11:54.923Z,20.92
2022-08-02T20:14:26.742Z,20.88
2022-08-02T20:16:58.080Z,20.86
2022-08-02T20:19:29.590Z,20.85
2022-08-02T20:21:59.596Z,20.80
2022-08-02T20:24:29.797Z,20.77
2022-08-02T20:27:00.557Z,20.72
2022-08-02T20:29:43.232Z,20.64
2022-08-02T20:32:14.707Z,20.30
2022-08-02T20:34:48.533Z,20.58
2022-08-02T20:37:59.271Z,20.52
2022-08-02T20:40:08.065Z,20.45
2022-08-02T20:42:38.157Z,20.42
2022-08-02T20:45:09.603Z,19.93
2022-08-02T20:47:40.739Z,20.17
2022-08-02T20:50:31.350Z,20.18
2022-08-02T20:53:04.288Z,20.13
2022-08-02T20:55:35.779Z,20.26
2022-08-02T20:58:06.406Z,20.23
2022-08-02T21:00:41.696Z,20.19
2022-08-02T21:03:12.106Z,20.18
2022-08-02T21:05:55.734Z,20.17
2022-08-02T21:08:25.293Z,20.09
2022-08-02T21:10:59.942Z,19.90
2022-08-02T21:13:33.207Z,20.16
2022-08-02T21:16:04.938Z,20.12
2022-08-02T21:18:40.243Z,20.08
2022-08-02T21:21:11.148Z,20.05
2022-08-02T21:23:48.577Z,20.03
2022-08-02T21:26:19.694Z,20.02
2022-08-02T21:28:56.125Z,19.98
2022-08-02T21:31:30.129Z,19.98
2022-08-02T21:34:02.755Z,19.96
2022-08-02T21:36:33.743Z,19.94
2022-08-02T21:39:04.552Z,19.92
2022-08-02T21:41:39.499Z,19.90
2022-08-02T21:44:17.053Z,19.93
2022-08-02T21:46:49.490Z,19.94
2022-08-02T21:49:20.107Z,19.94
2022-08-02T21:51:50.354Z,19.73
2022-08-02T21:54:21.569Z,19.64
2022-08-02T21:56:52.798Z,19.29
2022-08-02T21:59:25.378Z,19.81
2022-08-02T22:01:57.086Z,19.78
2022-08-02T22:04:26.686Z,19.78
2022-08-02T22:06:56.093Z,19.76
2022-08-02T22:09:44.551Z,19.49
2022-08-02T22:12:18.084Z,19.77
2022-08-02T22:14:55.143Z,19.74
2022-08-02T22:17:51.621Z,19.69
2022-08-02T22:20:20.395Z,19.53
2022-08-02T22:22:52.221Z,19.56
2022-08-02T22:25:36.517Z,19.53
2022-08-02T22:28:38.685Z,19.32
2022-08-02T22:31:00.214Z,19.50
2022-08-02T22:34:00.781Z,19.22
2022-08-02T22:36:31.623Z,19.44
2022-08-02T22:39:01.981Z,19.44
2022-08-02T22:44:20.150Z,19.43
2022-08-02T22:46:50.501Z,19.15
2022-08-02T22:49:37.598Z,18.06
2022-08-02T22:52:10.628Z,19.24
2022-08-02T22:54:39.781Z,19.02
2022-08-02T22:57:11.262Z,19.19
2022-08-02T22:58:47.003Z,22.50
2022-08-02T22:58:57.786Z,21.66
2022-08-02T22:59:41.641Z,18.79
2022-08-02T23:02:12.221Z,19.13
2022-08-02T23:04:41.348Z,19.09
2022-08-02T23:07:10.381Z,19.06
2022-08-02T23:09:39.384Z,19.02
2022-08-02T23:12:08.788Z,19.01
2022-08-02T23:14:37.889Z,18.97
2022-08-02T23:17:35.660Z,18.92
2022-08-02T23:20:08.027Z,18.87
2022-08-02T23:22:37.181Z,18.80
2022-08-02T23:25:08.564Z,18.61
2022-08-02T23:27:37.548Z,18.59
2022-08-02T23:30:08.263Z,18.69
2022-08-02T23:32:39.563Z,18.68
2022-08-02T23:35:11.008Z,18.49
2022-08-02T23:37:59.249Z,18.62
2022-08-02T23:40:31.680Z,18.42
2022-08-02T23:43:13.860Z,18.23
2022-08-02T23:45:46.461Z,18.43
2022-08-02T23:48:15.824Z,18.36
2022-08-02T23:50:45.909Z,18.09
2022-08-02T23:53:15.033Z,18.24
2022-08-02T23:55:43.682Z,18.20
2022-08-02T23:58:14.107Z,18.03
